Time;durP1;ratioP1;P1;durP2;ratioP2;P2;SDS_P1;SDS_P2;PMS_P1;PMS_P2;Temp;Humidity;BMP_temperature;BMP_pressure;BME280_temperature;BME280_humidity;BME280_pressure;Samples;Min_cycle;Max_cycle;Signal;HPM_P1;HPM_P2
2021/06/11 00:01:55;;;;;;;10.63;6.50;;;16.30;99.90;;;;;;5082905;28;20384;-81
2021/06/11 00:04:21;;;;;;;9.75;6.55;;;16.30;99.90;;;;;;5074698;28;20028;-81
2021/06/11 00:06:47;;;;;;;8.55;6.10;;;16.30;99.90;;;;;;5102324;22;20362;-87
2021/06/11 00:09:14;;;;;;;9.15;6.38;;;16.40;99.90;;;;;;5078443;28;20115;-87
2021/06/11 00:11:44;;;;;;;10.90;7.00;;;16.30;99.90;;;;;;5104705;28;20027;-87
2021/06/11 00:14:11;;;;;;;8.00;5.68;;;16.40;99.90;;;;;;5106326;28;20024;-87
2021/06/11 00:16:37;;;;;;;11.27;6.20;;;16.40;99.90;;;;;;5087429;28;20058;-87
2021/06/11 00:19:03;;;;;;;8.35;5.68;;;16.70;99.90;;;;;;5087863;28;20028;-87
2021/06/11 00:21:28;;;;;;;8.23;5.72;;;16.30;99.90;;;;;;5105750;28;20024;-87
2021/06/11 00:23:54;;;;;;;8.10;5.75;;;16.30;99.90;;;;;;5082588;28;20020;-87
2021/06/11 00:26:20;;;;;;;8.23;5.63;;;16.30;99.90;;;;;;5111672;28;20017;-87
2021/06/11 00:28:45;;;;;;;6.95;5.38;;;16.30;99.90;;;;;;5084763;28;20042;-87
2021/06/11 00:31:11;;;;;;;9.18;6.53;;;16.40;99.90;;;;;;5084869;28;20048;-87
2021/06/11 00:33:37;;;;;;;8.13;5.78;;;16.30;99.90;;;;;;5084852;28;20054;-87
2021/06/11 00:36:03;;;;;;;10.20;6.07;;;16.30;99.90;;;;;;5084875;28;20028;-87
2021/06/11 00:38:31;;;;;;;8.27;5.88;;;16.20;99.90;;;;;;5085833;28;20084;-87
2021/06/11 00:40:56;;;;;;;8.35;5.80;;;16.20;99.90;;;;;;5086777;28;20035;-87
2021/06/11 00:43:22;;;;;;;8.70;5.65;;;16.10;99.90;;;;;;5105672;28;20088;-87
2021/06/11 00:45:48;;;;;;;8.18;5.55;;;16.20;99.90;;;;;;5105078;28;20202;-87
2021/06/11 00:48:13;;;;;;;7.07;5.32;;;16.20;99.90;;;;;;5110564;28;20017;-87
2021/06/11 00:50:39;;;;;;;8.18;5.60;;;16.30;99.90;;;;;;5083645;28;20099;-87
2021/06/11 00:53:08;;;;;;;8.68;6.43;;;16.50;99.90;;;;;;5083555;28;20037;-87
2021/06/11 00:55:34;;;;;;;8.13;5.63;;;16.30;99.90;;;;;;5084655;28;20480;-87
2021/06/11 00:58:00;;;;;;;8.45;5.88;;;16.30;99.90;;;;;;5088624;28;20083;-87
2021/06/11 01:00:26;;;;;;;9.65;6.68;;;16.20;99.90;;;;;;5086594;28;20044;-87
2021/06/11 01:02:51;;;;;;;10.00;5.88;;;16.20;99.90;;;;;;5087707;28;20034;-87
2021/06/11 01:05:17;;;;;;;8.00;5.55;;;16.10;99.90;;;;;;5107493;28;20028;-86
2021/06/11 01:07:47;;;;;;;8.40;5.40;;;15.90;99.90;;;;;;5092047;28;20100;-87
2021/06/11 01:10:15;;;;;;;8.40;6.10;;;16.40;99.90;;;;;;5086033;28;20025;-87
2021/06/11 01:12:41;;;;;;;8.07;5.80;;;16.00;99.90;;;;;;5107481;28;20032;-87
2021/06/11 01:15:08;;;;;;;9.00;5.90;;;16.00;99.90;;;;;;5087121;28;20054;-87
2021/06/11 01:17:35;;;;;;;8.15;5.32;;;16.00;99.90;;;;;;5108313;28;20016;-86
2021/06/11 01:20:06;;;;;;;8.25;5.70;;;16.10;99.90;;;;;;5091061;28;20078;-87
2021/06/11 01:22:36;;;;;;;8.60;6.25;;;16.00;99.90;;;;;;5090370;28;20027;-87
2021/06/11 01:25:07;;;;;;;8.38;5.65;;;16.00;99.90;;;;;;5085941;28;20036;-86
2021/06/11 01:27:34;;;;;;;9.00;6.15;;;16.00;99.90;;;;;;5088203;28;20028;-87
2021/06/11 01:30:09;;;;;;;9.20;6.57;;;16.00;99.90;;;;;;5086904;28;20029;-86
2021/06/11 01:32:39;;;;;;;10.07;6.70;;;15.90;99.90;;;;;;5070224;28;20103;-87
2021/06/11 01:35:09;;;;;;;9.85;6.80;;;15.60;99.90;;;;;;5096241;28;20016;-87
2021/06/11 01:37:37;;;;;;;10.20;7.10;;;15.80;99.90;;;;;;5109987;28;20027;-87
2021/06/11 01:40:10;;;;;;;11.35;7.13;;;15.80;99.90;;;;;;5109628;28;20039;-87
2021/06/11 01:42:39;;;;;;;9.20;6.40;;;15.60;99.90;;;;;;5088136;28;20040;-87
2021/06/11 01:45:09;;;;;;;11.73;7.40;;;15.60;99.90;;;;;;5092147;28;20039;-87
2021/06/11 01:47:46;;;;;;;10.07;6.78;;;15.60;99.90;;;;;;5093921;28;20080;-87
2021/06/11 01:50:20;;;;;;;11.20;7.10;;;15.60;99.90;;;;;;5089047;28;20020;-87
2021/06/11 01:52:46;;;;;;;12.07;7.45;;;15.50;99.90;;;;;;5085737;28;20373;-87
2021/06/11 01:55:12;;;;;;;9.32;7.13;;;15.50;99.90;;;;;;5069143;28;20017;-88
2021/06/11 01:57:40;;;;;;;9.77;6.90;;;15.70;99.90;;;;;;5084535;28;20130;-87
2021/06/11 02:00:06;;;;;;;9.00;6.70;;;15.70;99.90;;;;;;5078339;28;20036;-86
2021/06/11 02:02:36;;;;;;;8.05;5.93;;;15.70;99.90;;;;;;5068051;28;20028;-87
2021/06/11 02:05:04;;;;;;;8.80;6.20;;;15.70;99.90;;;;;;5067488;28;20025;-87
2021/06/11 02:07:31;;;;;;;9.43;6.03;;;15.70;99.90;;;;;;5085757;28;20028;-87
2021/06/11 02:09:57;;;;;;;8.95;5.78;;;15.70;99.90;;;;;;5086359;28;20032;-87
2021/06/11 02:12:23;;;;;;;9.23;6.20;;;15.70;99.90;;;;;;5088017;28;20024;-87
2021/06/11 02:14:49;;;;;;;9.48;6.97;;;15.70;99.90;;;;;;5105100;28;20107;-87
2021/06/11 02:17:16;;;;;;;10.18;6.75;;;15.60;99.90;;;;;;5109863;28;20024;-86
2021/06/11 02:19:42;;;;;;;8.10;5.57;;;15.60;99.90;;;;;;5108245;28;20590;-87
2021/06/11 02:22:09;;;;;;;9.98;6.60;;;15.60;99.90;;;;;;5108210;28;20024;-87
2021/06/11 02:24:36;;;;;;;9.80;6.40;;;15.60;99.90;;;;;;5107287;28;20034;-86
2021/06/11 02:27:03;;;;;;;9.32;6.07;;;15.60;99.90;;;;;;5085290;28;20051;-87
2021/06/11 02:29:29;;;;;;;10.10;7.20;;;15.50;99.90;;;;;;5066112;28;20060;-86
2021/06/11 02:31:54;;;;;;;8.50;5.93;;;15.50;99.90;;;;;;5083420;28;20029;-86
2021/06/11 02:34:20;;;;;;;12.13;6.70;;;15.90;99.90;;;;;;5082488;28;20035;-87
2021/06/11 02:36:46;;;;;;;10.60;6.95;;;15.50;99.90;;;;;;5083584;28;20033;-87
2021/06/11 02:39:11;;;;;;;9.88;6.75;;;15.50;99.90;;;;;;5084355;28;20052;-87
2021/06/11 02:41:48;;;;;;;10.02;6.70;;;15.60;99.90;;;;;;5103636;28;20034;-86
2021/06/11 02:44:14;;;;;;;11.13;6.85;;;15.50;99.90;;;;;;5081649;28;20048;-85
2021/06/11 02:46:46;;;;;;;9.10;6.10;;;15.50;99.90;;;;;;5083315;28;20025;-86
2021/06/11 02:49:24;;;;;;;9.18;6.20;;;15.50;99.90;;;;;;5081287;28;20112;-85
2021/06/11 02:51:53;;;;;;;8.85;6.50;;;15.40;99.90;;;;;;5065155;28;20193;-87
2021/06/11 02:54:27;;;;;;;9.68;6.13;;;15.30;99.90;;;;;;5065226;28;20048;-86
2021/06/11 02:57:13;;;;;;;10.77;6.50;;;15.40;99.90;;;;;;5081925;28;20202;-87
2021/06/11 02:59:45;;;;;;;9.93;7.05;;;15.30;99.90;;;;;;5065831;28;20071;-87
2021/06/11 03:02:13;;;;;;;;;;;15.30;99.90;;;;;;5104623;28;20031;-86
2021/06/11 03:04:45;;;;;;;9.70;6.85;;;15.30;99.90;;;;;;5123243;28;20009;-86
2021/06/11 03:07:21;;;;;;;9.40;6.53;;;15.30;99.90;;;;;;5103631;28;20035;-86
2021/06/11 03:09:48;;;;;;;9.20;6.40;;;15.30;99.90;;;;;;5066009;28;20028;-86
2021/06/11 03:12:15;;;;;;;9.50;6.53;;;15.40;99.90;;;;;;5077654;28;20020;-86
2021/06/11 03:14:41;;;;;;;9.60;6.68;;;15.30;99.90;;;;;;5081839;28;20058;-86
2021/06/11 03:17:09;;;;;;;9.43;6.93;;;15.30;99.90;;;;;;5083933;28;20057;-86
2021/06/11 03:19:39;;;;;;;10.95;7.13;;;15.30;99.90;;;;;;5079431;28;20068;-87
2021/06/11 03:22:11;;;;;;;10.23;7.05;;;15.20;99.90;;;;;;5079907;28;20028;-87
2021/06/11 03:24:42;;;;;;;10.27;6.85;;;15.20;99.90;;;;;;5068841;28;20059;-86
2021/06/11 03:27:19;;;;;;;11.83;6.97;;;15.20;99.90;;;;;;5078397;28;20062;-86
2021/06/11 03:29:52;;;;;;;11.90;8.02;;;15.20;99.90;;;;;;5115944;28;20036;-86
2021/06/11 03:32:35;;;;;;;10.90;7.07;;;15.10;99.90;;;;;;5088587;28;20059;-86
2021/06/11 03:35:05;;;;;;;10.70;7.60;;;15.10;99.90;;;;;;5078786;28;20028;-86
2021/06/11 03:37:32;;;;;;;9.38;6.68;;;15.10;99.90;;;;;;5078599;28;20559;-86
2021/06/11 03:40:01;;;;;;;10.70;7.40;;;15.10;99.90;;;;;;5076652;28;20035;-85
2021/06/11 03:42:29;;;;;;;11.50;7.03;;;15.10;99.90;;;;;;5096581;28;20070;-86
2021/06/11 03:44:58;;;;;;;10.25;7.20;;;15.10;99.90;;;;;;5079773;28;20081;-86
2021/06/11 03:47:29;;;;;;;10.25;6.78;;;15.10;99.90;;;;;;5079204;28;20506;-86
2021/06/11 03:49:58;;;;;;;11.52;6.85;;;15.10;99.90;;;;;;5064620;28;20055;-86
2021/06/11 03:52:31;;;;;;;11.63;7.97;;;15.20;99.90;;;;;;5078804;28;20028;-86
2021/06/11 03:55:08;;;;;;;10.13;7.25;;;15.00;99.90;;;;;;5076900;28;20031;-86
2021/06/11 03:57:37;;;;;;;10.48;7.50;;;15.10;99.90;;;;;;5075957;28;20027;-86
2021/06/11 04:00:03;;;;;;;9.32;6.85;;;15.00;99.90;;;;;;5080335;28;20154;-86
2021/06/11 04:02:29;;;;;;;9.43;6.85;;;15.10;99.90;;;;;;5085198;28;20024;-85
2021/06/11 04:04:57;;;;;;;10.27;7.07;;;15.00;99.90;;;;;;5087654;28;20024;-85
2021/06/11 04:07:27;;;;;;;10.32;6.75;;;15.20;99.90;;;;;;5081316;28;20036;-85
2021/06/11 04:10:10;;;;;;;11.00;7.10;;;15.10;99.90;;;;;;5075359;28;20396;-85
2021/06/11 04:12:42;;;;;;;10.07;6.82;;;15.10;99.90;;;;;;5072670;28;20115;-86
2021/06/11 04:15:08;;;;;;;9.95;6.43;;;15.10;99.90;;;;;;5070355;28;20020;-85
2021/06/11 04:17:42;;;;;;;8.25;5.82;;;15.20;99.90;;;;;;5077227;28;20029;-85
2021/06/11 04:20:14;;;;;;;9.45;6.25;;;15.20;99.90;;;;;;5077577;28;20032;-86
2021/06/11 04:22:43;;;;;;;9.15;6.55;;;15.20;99.90;;;;;;5091865;28;20555;-85
2021/06/11 04:25:12;;;;;;;10.35;6.50;;;15.30;99.90;;;;;;5090297;28;20055;-86
2021/06/11 04:27:39;;;;;;;9.43;6.70;;;15.30;99.90;;;;;;5077264;28;20028;-86
2021/06/11 04:30:07;;;;;;;9.25;6.28;;;15.40;99.90;;;;;;5080461;28;20032;-86
2021/06/11 04:32:33;;;;;;;11.52;6.85;;;15.50;99.90;;;;;;5081128;28;20089;-85
2021/06/11 04:34:58;;;;;;;10.05;6.25;;;15.50;99.90;;;;;;5081591;28;20020;-85
2021/06/11 04:37:24;;;;;;;8.40;6.22;;;15.40;99.90;;;;;;5083847;28;20080;-86
2021/06/11 04:39:50;;;;;;;9.70;6.53;;;15.20;99.90;;;;;;5085575;28;20024;-86
2021/06/11 04:42:16;;;;;;;9.85;6.13;;;15.30;99.90;;;;;;5084911;28;20101;-86
2021/06/11 04:44:51;;;;;;;10.95;6.47;;;15.30;99.90;;;;;;5102457;28;20023;-86
2021/06/11 04:47:16;;;;;;;9.65;6.05;;;15.30;99.90;;;;;;5094010;28;20192;-86
2021/06/11 04:49:42;;;;;;;8.77;5.93;;;15.30;99.90;;;;;;5108136;28;20028;-87
2021/06/11 04:52:08;;;;;;;10.20;5.88;;;15.20;99.90;;;;;;5092852;28;20091;-86
2021/06/11 04:54:34;;;;;;;8.32;5.50;;;15.40;99.90;;;;;;5094352;28;20106;-86
2021/06/11 04:57:03;;;;;;;9.25;6.07;;;15.30;99.90;;;;;;5095889;28;20099;-85
2021/06/11 04:59:28;;;;;;;9.40;5.97;;;15.50;99.90;;;;;;5081371;28;20490;-85
2021/06/11 05:01:54;;;;;;;7.50;5.07;;;15.50;99.90;;;;;;5079709;28;20098;-86
2021/06/11 05:04:20;;;;;;;7.40;5.10;;;15.50;99.90;;;;;;5080749;28;20538;-85
2021/06/11 05:06:45;;;;;;;8.00;5.30;;;15.50;99.90;;;;;;5088226;28;20474;-86
2021/06/11 05:09:11;;;;;;;8.27;5.20;;;15.60;99.90;;;;;;5084472;28;20036;-86
2021/06/11 05:11:36;;;;;;;8.73;5.57;;;15.60;99.90;;;;;;5067402;28;20020;-86
2021/06/11 05:14:02;;;;;;;10.18;5.15;;;15.70;99.90;;;;;;5081146;28;20385;-86
2021/06/11 05:16:28;;;;;;;10.25;5.35;;;15.70;99.90;;;;;;5081160;28;20024;-86
2021/06/11 05:18:53;;;;;;;8.02;4.80;;;15.60;99.90;;;;;;5078032;28;20069;-86
2021/06/11 05:21:19;;;;;;;7.68;4.88;;;15.60;99.90;;;;;;5088914;28;20016;-86
2021/06/11 05:23:45;;;;;;;8.48;5.05;;;15.60;99.90;;;;;;5099535;28;20028;-86
2021/06/11 05:26:10;;;;;;;6.88;4.93;;;15.90;99.90;;;;;;5087629;28;20130;-86
2021/06/11 05:28:36;;;;;;;8.02;5.07;;;15.80;99.90;;;;;;5079978;28;20116;-86
2021/06/11 05:31:02;;;;;;;9.07;5.75;;;15.70;99.90;;;;;;5084071;28;20032;-85
2021/06/11 05:33:27;;;;;;;8.85;5.80;;;15.60;99.90;;;;;;5094717;28;20024;-85
2021/06/11 05:35:53;;;;;;;9.23;5.50;;;15.60;99.90;;;;;;5064083;28;20058;-85
2021/06/11 05:38:19;;;;;;;8.15;5.68;;;15.50;99.90;;;;;;5081181;28;20102;-85
2021/06/11 05:40:45;;;;;;;9.45;5.97;;;15.50;99.90;;;;;;5081272;28;20472;-85
2021/06/11 05:43:11;;;;;;;9.60;6.07;;;15.50;99.90;;;;;;5079073;28;20043;-86
2021/06/11 05:45:37;;;;;;;8.55;5.53;;;15.50;99.90;;;;;;5087674;28;20046;-87
2021/06/11 05:48:04;;;;;;;9.00;6.28;;;15.70;99.90;;;;;;5117161;28;20399;-86
2021/06/11 05:50:30;;;;;;;10.70;5.78;;;15.80;99.90;;;;;;5101280;28;20035;-87
2021/06/11 05:52:56;;;;;;;9.07;5.72;;;15.80;99.90;;;;;;5078071;28;20029;-87
2021/06/11 05:55:22;;;;;;;9.93;5.65;;;15.90;99.90;;;;;;5079170;28;20021;-87
2021/06/11 05:57:48;;;;;;;9.30;6.32;;;16.00;99.90;;;;;;5083925;28;20032;-87
2021/06/11 06:00:14;;;;;;;8.57;6.25;;;16.10;99.90;;;;;;5085249;28;20036;-87
2021/06/11 06:02:40;;;;;;;7.95;5.47;;;16.20;99.90;;;;;;5084907;28;20039;-87
2021/06/11 06:05:08;;;;;;;10.15;7.03;;;16.30;99.90;;;;;;5095995;28;20071;-87
2021/06/11 06:07:37;;;;;;;8.27;5.55;;;16.40;99.90;;;;;;5108553;22;20083;-85
2021/06/11 06:10:09;;;;;;;9.48;6.10;;;16.50;99.90;;;;;;5089645;28;20103;-86
2021/06/11 06:12:35;;;;;;;8.43;5.57;;;16.70;99.90;;;;;;5079547;28;20458;-85
2021/06/11 06:15:00;;;;;;;8.27;5.25;;;16.80;99.90;;;;;;5080189;28;20031;-85
2021/06/11 06:17:27;;;;;;;9.30;6.43;;;17.10;99.90;;;;;;5088770;28;20024;-85
2021/06/11 06:19:53;;;;;;;8.73;6.07;;;17.20;99.90;;;;;;5091537;28;20028;-85
2021/06/11 06:22:18;;;;;;;9.23;6.10;;;17.30;99.90;;;;;;5072667;28;20036;-85
2021/06/11 06:24:44;;;;;;;8.70;5.72;;;17.40;99.90;;;;;;5091173;28;20514;-85
2021/06/11 06:27:10;;;;;;;7.95;5.43;;;17.60;99.90;;;;;;5061087;28;20107;-85
2021/06/11 06:29:35;;;;;;;8.57;5.82;;;17.80;99.90;;;;;;5091703;28;20095;-86
2021/06/11 06:32:04;;;;;;;9.75;6.38;;;17.90;99.90;;;;;;5110710;28;20499;-85
2021/06/11 06:34:30;;;;;;;9.43;5.90;;;18.00;99.90;;;;;;5093167;28;20019;-86
2021/06/11 06:36:56;;;;;;;10.02;6.40;;;18.10;99.90;;;;;;5084935;28;20039;-85
2021/06/11 06:39:22;;;;;;;9.80;6.53;;;18.10;99.90;;;;;;5070020;28;20396;-85
2021/06/11 06:41:51;;;;;;;9.27;6.65;;;18.00;99.90;;;;;;5077800;28;20044;-86
2021/06/11 06:44:16;;;;;;;8.85;6.22;;;18.10;99.90;;;;;;5081611;28;20063;-86
2021/06/11 06:46:42;;;;;;;9.43;6.22;;;18.20;99.90;;;;;;5089827;28;20069;-86
2021/06/11 06:49:09;;;;;;;9.13;6.90;;;18.30;99.90;;;;;;5092993;28;20055;-87
2021/06/11 06:51:36;;;;;;;9.77;7.05;;;18.30;99.90;;;;;;5083496;28;20051;-86
2021/06/11 06:54:02;;;;;;;11.55;6.28;;;18.50;99.90;;;;;;5081370;28;20028;-85
2021/06/11 06:56:29;;;;;;;7.97;5.63;;;18.60;99.90;;;;;;5086326;28;20036;-86
2021/06/11 06:58:55;;;;;;;10.18;6.88;;;18.80;99.90;;;;;;5101116;28;20479;-86
2021/06/11 07:01:24;;;;;;;10.85;6.32;;;18.90;99.90;;;;;;5093507;28;20038;-86
2021/06/11 07:03:50;;;;;;;9.70;6.13;;;19.00;99.90;;;;;;5100454;28;20020;-85
2021/06/11 07:06:16;;;;;;;8.60;6.30;;;19.10;99.90;;;;;;5068790;28;20028;-85
2021/06/11 07:08:42;;;;;;;10.73;6.65;;;19.20;99.90;;;;;;5075147;28;20028;-85
2021/06/11 07:11:07;;;;;;;8.52;5.95;;;19.50;99.90;;;;;;5081129;28;20458;-85
2021/06/11 07:13:33;;;;;;;9.30;5.93;;;19.70;99.90;;;;;;5074594;28;20021;-85
2021/06/11 07:15:59;;;;;;;7.78;5.50;;;19.80;99.90;;;;;;5091224;28;20021;-85
2021/06/11 07:18:25;;;;;;;8.77;5.55;;;20.00;99.90;;;;;;5090638;28;20349;-85
2021/06/11 07:20:51;;;;;;;10.27;5.82;;;20.10;99.90;;;;;;5087392;28;20024;-84
2021/06/11 07:23:16;;;;;;;8.30;6.28;;;20.30;99.90;;;;;;5079727;28;20043;-85
2021/06/11 07:25:42;;;;;;;9.18;5.53;;;20.30;99.90;;;;;;5091698;28;20031;-85
2021/06/11 07:28:07;;;;;;;8.60;5.38;;;20.40;99.90;;;;;;5091540;28;20032;-85
2021/06/11 07:30:33;;;;;;;8.43;5.93;;;20.70;99.90;;;;;;5083734;28;20028;-85
2021/06/11 07:32:59;;;;;;;7.60;5.65;;;21.10;99.90;;;;;;5072645;28;20028;-86
2021/06/11 07:35:25;;;;;;;8.15;5.32;;;21.10;99.90;;;;;;5076268;28;20039;-87
2021/06/11 07:37:50;;;;;;;8.88;5.68;;;21.20;99.90;;;;;;5076156;28;20107;-86
2021/06/11 07:40:16;;;;;;;8.43;5.70;;;21.40;99.90;;;;;;5066877;28;20439;-86
2021/06/11 07:42:42;;;;;;;7.90;5.70;;;21.50;99.90;;;;;;5080420;28;20008;-87
2021/06/11 07:45:09;;;;;;;8.48;5.47;;;21.60;99.90;;;;;;5081309;28;20096;-86
2021/06/11 07:47:35;;;;;;;7.50;5.50;;;21.70;99.90;;;;;;5091092;28;20121;-84
2021/06/11 07:50:03;;;;;;;9.75;5.95;;;21.90;99.90;;;;;;5078607;28;20035;-85
2021/06/11 07:52:30;;;;;;;7.90;5.85;;;22.00;99.90;;;;;;5091107;28;20024;-84
2021/06/11 07:54:59;;;;;;;8.90;6.43;;;22.20;99.90;;;;;;5073355;28;20021;-84
2021/06/11 07:57:25;;;;;;;8.60;6.20;;;22.20;99.90;;;;;;5073053;28;20031;-84
2021/06/11 07:59:51;;;;;;;7.00;5.03;;;22.40;99.90;;;;;;5076633;28;20020;-84
2021/06/11 08:02:16;;;;;;;7.53;5.45;;;22.50;99.90;;;;;;5072841;28;20034;-84
2021/06/11 08:04:42;;;;;;;9.25;5.80;;;22.60;99.90;;;;;;5056802;28;20028;-84
2021/06/11 08:07:07;;;;;;;7.35;5.43;;;22.90;99.90;;;;;;5090081;28;20097;-86
2021/06/11 08:09:34;;;;;;;8.23;5.78;;;23.10;99.90;;;;;;5090753;28;20047;-85
2021/06/11 08:11:59;;;;;;;8.05;5.32;;;23.20;99.90;;;;;;5077230;28;20024;-84
2021/06/11 08:14:25;;;;;;;7.63;5.22;;;23.40;99.90;;;;;;5052074;28;20112;-84
2021/06/11 08:16:51;;;;;;;7.90;5.47;;;23.60;99.90;;;;;;5070354;28;20070;-87
2021/06/11 08:19:17;;;;;;;8.40;5.93;;;23.60;99.90;;;;;;5070731;28;20021;-86
2021/06/11 08:21:42;;;;;;;10.10;5.80;;;23.70;99.90;;;;;;5079430;28;20024;-86
2021/06/11 08:24:08;;;;;;;8.02;5.45;;;23.80;99.90;;;;;;5090338;28;20055;-86
2021/06/11 08:26:34;;;;;;;8.70;5.28;;;24.00;99.90;;;;;;5075343;28;20378;-85
2021/06/11 08:29:00;;;;;;;8.55;5.72;;;24.10;99.90;;;;;;5077440;28;20070;-86
2021/06/11 08:31:27;;;;;;;8.63;5.70;;;24.20;99.90;;;;;;5089557;28;20044;-85
2021/06/11 08:33:52;;;;;;;7.72;5.35;;;24.40;99.90;;;;;;5089330;28;20099;-86
2021/06/11 08:36:18;;;;;;;7.43;5.03;;;24.50;99.90;;;;;;5075888;28;20165;-86
2021/06/11 08:38:44;;;;;;;8.27;6.10;;;24.50;99.90;;;;;;5088976;28;20035;-86
2021/06/11 08:41:11;;;;;;;8.15;5.88;;;24.60;99.90;;;;;;5076991;28;20452;-86
2021/06/11 08:43:37;;;;;;;7.32;5.25;;;24.50;99.90;;;;;;5076240;28;20115;-85
2021/06/11 08:46:03;;;;;;;8.70;5.30;;;24.70;99.90;;;;;;5087531;28;20086;-86
2021/06/11 08:48:28;;;;;;;7.95;5.85;;;24.80;99.90;;;;;;5089144;28;20782;-86
2021/06/11 08:50:54;;;;;;;6.65;4.72;;;24.90;99.90;;;;;;5089679;28;20026;-86
2021/06/11 08:53:21;;;;;;;7.15;5.30;;;25.10;99.90;;;;;;5075960;28;20115;-86
2021/06/11 08:55:47;;;;;;;8.77;5.88;;;25.30;99.90;;;;;;5073655;28;20634;-86
2021/06/11 08:58:13;;;;;;;7.75;5.78;;;25.20;99.90;;;;;;5089695;28;20030;-86
2021/06/11 09:00:39;;;;;;;7.97;5.72;;;25.30;99.90;;;;;;5089979;28;20028;-87
2021/06/11 09:03:20;;;;;;;8.00;5.30;;;25.20;99.90;;;;;;5085193;28;20119;-88
2021/06/11 09:06:04;;;;;;;7.22;5.20;;;25.30;99.90;;;;;;5072629;28;20480;-87
2021/06/11 09:08:29;;;;;;;6.82;5.22;;;25.40;99.90;;;;;;5072951;28;20071;-86
2021/06/11 09:11:18;;;;;;;8.23;6.00;;;25.50;99.90;;;;;;5068527;28;20059;-88
2021/06/11 09:13:47;;;;;;;8.30;6.25;;;25.80;99.90;;;;;;5067910;28;20021;-87
2021/06/11 09:16:14;;;;;;;7.80;5.10;;;26.00;99.90;;;;;;5069997;28;20432;-88
2021/06/11 09:18:43;;;;;;;7.28;5.00;;;26.00;99.90;;;;;;5073212;28;20069;-85
2021/06/11 09:21:32;;;;;;;7.85;4.90;;;26.20;99.90;;;;;;5078530;28;20119;-85
2021/06/11 09:24:20;;;;;;;7.35;5.35;;;26.60;99.90;;;;;;5091728;28;20020;-85
2021/06/11 09:26:58;;;;;;;8.68;5.75;;;26.80;99.90;;;;;;5075894;28;20031;-85
2021/06/11 09:29:29;;;;;;;8.25;5.60;;;27.00;99.40;;;;;;5075247;28;20024;-87
2021/06/11 09:32:13;;;;;;;;;;;27.00;98.60;;;;;;5093493;28;20174;-86
2021/06/11 09:34:40;;;;;;;6.63;4.50;;;27.10;99.00;;;;;;5096145;28;19908;-86
2021/06/11 09:37:14;;;;;;;6.10;4.63;;;27.40;98.50;;;;;;5078561;28;20035;-85
2021/06/11 09:39:41;;;;;;;6.40;5.00;;;27.60;97.90;;;;;;5071969;28;20028;-85
2021/06/11 09:42:07;;;;;;;6.90;5.15;;;27.70;96.30;;;;;;5079948;28;20730;-85
2021/06/11 09:44:33;;;;;;;8.32;6.32;;;27.90;97.30;;;;;;5092687;28;20028;-86
2021/06/11 09:46:58;;;;;;;8.02;5.68;;;28.00;94.10;;;;;;5092677;28;20574;-86
2021/06/11 09:49:28;;;;;;;8.10;6.00;;;27.70;93.30;;;;;;5090217;28;20396;-86
2021/06/11 09:52:04;;;;;;;9.35;5.82;;;27.90;92.50;;;;;;5092718;28;20050;-88
2021/06/11 09:54:30;;;;;;;6.88;4.95;;;28.10;91.00;;;;;;5076569;28;20042;-87
2021/06/11 09:56:56;;;;;;;7.53;5.95;;;28.10;91.40;;;;;;5065083;28;20028;-86
2021/06/11 09:59:40;;;;;;;6.53;5.00;;;28.40;90.00;;;;;;5078559;28;20103;-86
2021/06/11 10:02:17;;;;;;;6.35;4.78;;;28.50;89.30;;;;;;5076213;28;20029;-86
2021/06/11 10:04:44;;;;;;;7.57;5.50;;;28.40;88.80;;;;;;5078146;28;20050;-86
2021/06/11 10:07:11;;;;;;;6.93;4.93;;;28.40;86.90;;;;;;5083272;28;20482;-86
2021/06/11 10:09:38;;;;;;;7.25;4.90;;;28.40;85.40;;;;;;5085041;28;20034;-86
2021/06/11 10:12:04;;;;;;;8.18;5.13;;;28.30;86.70;;;;;;5076066;28;20024;-85
2021/06/11 10:14:30;;;;;;;6.45;5.10;;;28.20;87.40;;;;;;5091508;28;20020;-85
2021/06/11 10:16:56;;;;;;;6.80;5.53;;;27.90;85.40;;;;;;5078896;28;20392;-86
2021/06/11 10:19:24;;;;;;;6.55;5.18;;;28.10;86.00;;;;;;5087350;28;20039;-87
2021/06/11 10:21:51;;;;;;;6.45;4.78;;;28.30;84.80;;;;;;5090391;28;20488;-86
2021/06/11 10:24:17;;;;;;;6.20;4.93;;;28.60;85.60;;;;;;5078548;28;20024;-86
2021/06/11 10:26:43;;;;;;;6.72;5.07;;;29.10;85.30;;;;;;5088914;28;20069;-87
2021/06/11 10:29:14;;;;;;;8.13;5.10;;;29.40;83.00;;;;;;5087637;28;20098;-87
2021/06/11 10:31:40;;;;;;;7.05;5.53;;;29.20;86.30;;;;;;5078707;28;20173;-86
2021/06/11 10:34:06;;;;;;;8.63;6.00;;;28.90;82.00;;;;;;5081624;28;20048;-86
2021/06/11 10:36:36;;;;;;;8.00;5.18;;;28.30;80.00;;;;;;5090210;28;20024;-86
2021/06/11 10:39:12;;;;;;;8.35;4.60;;;28.10;82.10;;;;;;5054025;28;20621;-86
2021/06/11 10:42:18;;;;;;;7.35;4.93;;;28.50;84.20;;;;;;5053314;28;20631;-87
2021/06/11 10:44:46;;;;;;;6.70;5.20;;;29.00;79.50;;;;;;5070980;28;20107;-86
2021/06/11 10:47:15;;;;;;;5.85;4.38;;;29.40;78.90;;;;;;5061975;28;20262;-87
2021/06/11 10:50:02;;;;;;;6.75;5.07;;;29.70;79.00;;;;;;5081447;28;20066;-87
2021/06/11 10:52:31;;;;;;;6.60;5.60;;;29.50;75.70;;;;;;5053390;28;20499;-86
2021/06/11 10:55:17;;;;;;;6.85;4.85;;;29.40;72.80;;;;;;5060266;28;20056;-87
2021/06/11 10:57:52;;;;;;;6.65;5.65;;;29.60;72.80;;;;;;5071297;28;20131;-87
2021/06/11 11:00:24;;;;;;;6.35;4.57;;;29.30;74.10;;;;;;5081378;28;20022;-88
2021/06/11 11:02:55;;;;;;;6.03;4.50;;;28.50;73.60;;;;;;5083610;28;20052;-87
2021/06/11 11:05:31;;;;;;;5.88;4.65;;;28.10;76.90;;;;;;5089855;28;20024;-88
2021/06/11 11:07:57;;;;;;;5.68;3.90;;;28.50;76.50;;;;;;5073208;28;20028;-88
2021/06/11 11:10:44;;;;;;;6.55;3.50;;;29.00;74.40;;;;;;5073815;28;20051;-87
2021/06/11 11:13:13;;;;;;;5.32;3.95;;;29.30;74.00;;;;;;5080224;28;20472;-87
2021/06/11 11:15:59;;;;;;;6.63;4.50;;;30.00;73.30;;;;;;5077259;28;20102;-87
2021/06/11 11:18:33;;;;;;;7.70;4.07;;;30.30;70.20;;;;;;5087512;28;20081;-87
2021/06/11 11:21:00;;;;;;;4.90;3.60;;;30.90;67.80;;;;;;5073368;28;20083;-86
2021/06/11 11:23:27;;;;;;;5.97;4.55;;;30.90;70.20;;;;;;5072920;28;20454;-87
2021/06/11 11:25:54;;;;;;;6.93;4.65;;;30.50;66.40;;;;;;5084134;28;20092;-87
2021/06/11 11:28:20;;;;;;;7.00;4.50;;;30.40;64.40;;;;;;5053439;28;20032;-87
2021/06/11 11:30:48;;;;;;;5.22;4.55;;;30.40;63.80;;;;;;5086206;28;20495;-87
2021/06/11 11:33:16;;;;;;;7.35;4.28;;;30.30;64.10;;;;;;5072294;28;20020;-86
2021/06/11 11:35:46;;;;;;;5.82;4.45;;;29.90;63.90;;;;;;5081121;28;20488;-86
2021/06/11 11:38:13;;;;;;;6.63;4.33;;;29.70;64.30;;;;;;5088754;28;20027;-87
2021/06/11 11:40:43;;;;;;;6.97;4.70;;;29.60;64.30;;;;;;5091258;28;20258;-87
2021/06/11 11:43:09;;;;;;;6.30;4.28;;;29.10;64.70;;;;;;5087859;28;20077;-87
2021/06/11 11:45:37;;;;;;;6.75;4.47;;;28.70;64.90;;;;;;5079331;28;20477;-87
2021/06/11 11:48:06;;;;;;;6.18;3.90;;;28.30;64.00;;;;;;5089168;28;20024;-87
2021/06/11 11:50:33;;;;;;;6.63;4.90;;;28.00;66.10;;;;;;5068734;28;20028;-87
2021/06/11 11:52:59;;;;;;;5.50;4.00;;;28.50;68.60;;;;;;5078236;28;20850;-89
2021/06/11 11:55:25;;;;;;;6.95;4.25;;;28.90;68.90;;;;;;5076837;28;20111;-88
2021/06/11 11:57:51;;;;;;;6.70;4.53;;;29.60;63.90;;;;;;5075052;28;20020;-88
2021/06/11 12:00:17;;;;;;;6.25;4.05;;;30.10;60.80;;;;;;5050526;28;20102;-88
2021/06/11 12:02:44;;;;;;;5.35;4.35;;;30.00;61.30;;;;;;5070001;28;20047;-88
2021/06/11 12:05:11;;;;;;;6.18;4.80;;;29.30;60.90;;;;;;5069736;28;20055;-88
2021/06/11 12:07:37;;;;;;;6.88;5.03;;;28.60;64.20;;;;;;5068426;28;20028;-85
2021/06/11 12:10:04;;;;;;;7.25;5.32;;;28.90;64.70;;;;;;5071020;28;20036;-85
2021/06/11 12:12:30;;;;;;;6.30;5.13;;;28.90;63.90;;;;;;5069520;28;20031;-85
2021/06/11 12:14:55;;;;;;;6.45;4.78;;;28.90;63.80;;;;;;5070417;28;20036;-85
2021/06/11 12:17:21;;;;;;;6.18;4.28;;;29.20;65.20;;;;;;5070845;28;20431;-85
2021/06/11 12:19:47;;;;;;;7.50;5.07;;;29.70;66.20;;;;;;5070753;28;20035;-85
2021/06/11 12:22:14;;;;;;;8.52;5.53;;;30.10;63.40;;;;;;5069586;28;20027;-85
2021/06/11 12:24:40;;;;;;;5.63;4.35;;;30.40;61.90;;;;;;5070366;28;20090;-85
2021/06/11 12:27:07;;;;;;;6.53;5.00;;;29.90;63.00;;;;;;5051185;28;20503;-85
2021/06/11 12:29:32;;;;;;;6.85;4.68;;;30.10;61.80;;;;;;5096480;22;20040;-88
2021/06/11 12:31:58;;;;;;;6.30;4.85;;;30.20;64.30;;;;;;5089730;28;20038;-86
2021/06/11 12:34:24;;;;;;;7.05;5.15;;;30.40;62.00;;;;;;5090450;28;20476;-86
2021/06/11 12:36:50;;;;;;;6.20;4.70;;;30.00;62.10;;;;;;5089149;28;20032;-86
2021/06/11 12:39:15;;;;;;;11.38;5.15;;;30.40;60.80;;;;;;5071364;28;20021;-86
2021/06/11 12:41:41;;;;;;;5.65;4.35;;;30.70;61.20;;;;;;5065948;28;20029;-86
2021/06/11 12:44:15;;;;;;;5.57;4.38;;;30.90;59.20;;;;;;5046945;28;20029;-89
2021/06/11 12:46:47;;;;;;;4.63;3.45;;;31.00;59.70;;;;;;5051065;28;20048;-88
2021/06/11 12:49:13;;;;;;;4.60;3.50;;;31.20;54.90;;;;;;5061369;28;20024;-88
2021/06/11 12:51:40;;;;;;;4.60;3.22;;;31.60;53.40;;;;;;5053763;28;20029;-88